createdAt,value
2022-11-11T00:02:15.836Z,78.27
2022-11-11T00:05:04.998Z,78.55
2022-11-11T00:07:59.622Z,78.32
2022-11-11T00:10:49.039Z,78.59
2022-11-11T00:13:38.872Z,78.49
2022-11-11T00:16:49.131Z,79.18
2022-11-11T00:19:56.631Z,79.08
2022-11-11T00:23:03.756Z,78.45
2022-11-11T00:26:11.557Z,79.00
2022-11-11T00:29:04.646Z,78.76
2022-11-11T00:32:12.139Z,78.48
2022-11-11T00:35:19.610Z,79.01
2022-11-11T00:38:10.043Z,79.41
2022-11-11T00:41:00.612Z,79.09
2022-11-11T00:43:50.414Z,79.48
2022-11-11T00:46:58.151Z,79.71
2022-11-11T00:50:05.647Z,79.61
2022-11-11T00:52:56.303Z,79.59
2022-11-11T00:55:45.688Z,79.78
2022-11-11T00:58:35.367Z,80.13
2022-11-11T01:01:24.590Z,79.34
2022-11-11T01:04:14.197Z,79.62
2022-11-11T01:07:04.180Z,80.12
2022-11-11T01:09:54.258Z,80.13
2022-11-11T01:12:44.302Z,79.90
2022-11-11T01:15:35.728Z,80.06
2022-11-11T01:18:27.377Z,79.31
2022-11-11T01:21:18.309Z,79.48
2022-11-11T01:24:08.514Z,80.08
2022-11-11T01:26:58.211Z,79.76
2022-11-11T01:29:48.619Z,79.61
2022-11-11T01:32:39.087Z,79.28
2022-11-11T01:35:28.833Z,79.67
2022-11-11T01:38:17.956Z,79.47
2022-11-11T01:41:22.825Z,79.51
2022-11-11T01:44:20.303Z,79.22
2022-11-11T01:47:10.290Z,78.57
2022-11-11T01:50:03.842Z,78.74
2022-11-11T01:52:53.982Z,78.71
2022-11-11T01:55:44.222Z,78.91
2022-11-11T01:58:33.856Z,79.16
2022-11-11T02:01:23.714Z,78.85
2022-11-11T02:04:31.237Z,79.29
2022-11-11T02:07:21.583Z,80.07
2022-11-11T02:10:11.732Z,80.01
2022-11-11T02:13:18.881Z,79.90
2022-11-11T02:16:09.268Z,80.19
2022-11-11T02:18:58.710Z,79.99
2022-11-11T02:21:52.419Z,79.70
2022-11-11T02:24:43.712Z,79.55
2022-11-11T02:27:36.235Z,79.56
2022-11-11T02:30:25.977Z,79.87
2022-11-11T02:33:15.663Z,79.49
2022-11-11T02:36:06.383Z,79.37
2022-11-11T02:38:57.167Z,79.72
2022-11-11T02:42:00.882Z,79.85
2022-11-11T02:44:50.043Z,80.03
2022-11-11T02:47:39.204Z,79.37
2022-11-11T02:50:28.812Z,78.82
2022-11-11T02:53:18.747Z,78.48
2022-11-11T02:56:08.887Z,78.36
2022-11-11T02:58:58.727Z,78.90
2022-11-11T03:01:48.088Z,79.34
2022-11-11T03:04:38.479Z,79.86
2022-11-11T03:07:28.380Z,79.66
2022-11-11T03:10:18.475Z,78.96
2022-11-11T03:13:08.182Z,78.66
2022-11-11T03:15:58.328Z,78.94
2022-11-11T03:18:48.013Z,78.46
2022-11-11T03:25:05.149Z,78.31
2022-11-11T03:27:55.203Z,78.32
2022-11-11T03:30:46.158Z,78.43
2022-11-11T03:33:35.439Z,78.43
2022-11-11T03:36:44.775Z,78.04
2022-11-11T03:39:34.551Z,77.54
2022-11-11T03:42:24.133Z,77.81
2022-11-11T03:45:13.843Z,77.77
2022-11-11T03:48:03.167Z,78.03
2022-11-11T03:50:52.974Z,78.60
2022-11-11T03:53:42.314Z,78.32
2022-11-11T03:56:32.080Z,78.27
2022-11-11T03:59:21.640Z,78.00
2022-11-11T04:02:29.774Z,78.18
2022-11-11T04:05:36.850Z,78.26
2022-11-11T04:08:43.418Z,78.47
2022-11-11T04:11:34.310Z,79.74
2022-11-11T04:14:52.684Z,79.48
2022-11-11T04:17:42.986Z,79.03
2022-11-11T04:20:50.046Z,79.21
2022-11-11T04:23:39.499Z,79.73
2022-11-11T04:26:29.801Z,80.15
2022-11-11T04:29:32.048Z,79.58
2022-11-11T04:32:39.506Z,79.95
2022-11-11T04:35:29.472Z,80.69
2022-11-11T04:38:36.068Z,80.54
2022-11-11T04:41:36.186Z,80.37
2022-11-11T04:44:48.534Z,80.69
2022-11-11T04:47:37.823Z,80.57
2022-11-11T04:50:28.597Z,80.22
2022-11-11T04:53:17.704Z,79.30
2022-11-11T04:56:25.735Z,79.71
2022-11-11T04:59:18.404Z,79.58
2022-11-11T05:02:26.368Z,79.02
2022-11-11T05:05:17.352Z,78.75
2022-11-11T05:08:24.923Z,78.84
2022-11-11T05:11:14.472Z,78.75
2022-11-11T05:14:34.264Z,79.14
2022-11-11T05:17:41.196Z,79.43
2022-11-11T05:20:48.279Z,78.90
2022-11-11T05:23:51.201Z,78.46
2022-11-11T05:26:40.311Z,78.01
2022-11-11T05:29:30.119Z,78.05
2022-11-11T05:32:20.063Z,78.29
2022-11-11T05:35:12.532Z,78.63
2022-11-11T05:38:22.675Z,78.60
2022-11-11T05:41:12.919Z,78.12
2022-11-11T05:44:02.482Z,77.76
2022-11-11T05:46:51.942Z,77.90
2022-11-11T05:49:43.791Z,77.83
2022-11-11T05:52:33.979Z,78.40
2022-11-11T05:55:23.495Z,78.49
2022-11-11T05:58:12.956Z,78.36
2022-11-11T06:01:01.964Z,78.47
2022-11-11T06:03:51.870Z,78.84
2022-11-11T06:06:41.526Z,79.02
2022-11-11T06:09:31.453Z,78.53
2022-11-11T06:12:20.739Z,79.01
2022-11-11T06:15:11.389Z,78.87
2022-11-11T06:18:00.760Z,78.89
2022-11-11T06:20:55.634Z,79.69
2022-11-11T06:23:45.216Z,79.16
2022-11-11T06:26:35.437Z,79.17
2022-11-11T06:29:25.902Z,79.36
2022-11-11T06:32:16.011Z,79.52
2022-11-11T06:35:05.889Z,79.45
2022-11-11T06:37:56.354Z,80.13
2022-11-11T06:40:46.256Z,80.60
2022-11-11T06:43:35.758Z,80.79
2022-11-11T06:46:25.753Z,80.20
2022-11-11T06:49:16.189Z,80.23
2022-11-11T06:52:05.345Z,80.84
2022-11-11T06:54:54.628Z,81.37
2022-11-11T06:57:44.649Z,80.77
2022-11-11T07:00:34.635Z,81.11
2022-11-11T07:03:25.730Z,82.13
2022-11-11T07:06:15.991Z,82.54
2022-11-11T07:09:05.995Z,82.72
2022-11-11T07:11:55.942Z,82.43
2022-11-11T07:14:45.918Z,81.88
2022-11-11T07:17:35.756Z,82.03
2022-11-11T07:20:25.059Z,81.58
2022-11-11T07:23:15.005Z,82.11
2022-11-11T07:26:04.306Z,82.28
2022-11-11T07:28:53.873Z,81.45
2022-11-11T07:31:43.496Z,81.13
2022-11-11T07:34:33.383Z,80.29
2022-11-11T07:37:23.344Z,80.10
2022-11-11T07:40:14.054Z,81.03
2022-11-11T07:43:03.633Z,81.13
2022-11-11T07:45:52.926Z,81.31
2022-11-11T07:48:42.788Z,82.35
2022-11-11T07:51:32.022Z,82.51
2022-11-11T07:54:21.279Z,82.26
2022-11-11T07:57:10.948Z,82.00
2022-11-11T08:00:00.186Z,82.06
2022-11-11T08:02:49.731Z,81.49
2022-11-11T08:05:38.956Z,81.38
2022-11-11T08:08:28.767Z,81.16
2022-11-11T08:11:39.409Z,81.38
2022-11-11T08:14:29.268Z,81.74
2022-11-11T08:17:18.890Z,81.67
2022-11-11T08:20:10.129Z,81.42
2022-11-11T08:23:38.136Z,81.58
2022-11-11T08:26:09.755Z,81.79
2022-11-11T08:28:59.476Z,82.40
2022-11-11T08:31:49.611Z,82.08
2022-11-11T08:34:38.636Z,81.25
2022-11-11T08:37:29.909Z,80.65
2022-11-11T08:40:20.432Z,80.68
2022-11-11T08:43:10.020Z,80.91
2022-11-11T08:45:59.993Z,80.61
2022-11-11T08:48:52.613Z,80.47
2022-11-11T08:51:44.993Z,80.67
2022-11-11T08:54:35.672Z,81.24
2022-11-11T08:57:25.350Z,81.63
2022-11-11T09:00:16.748Z,81.60
2022-11-11T09:03:07.001Z,80.98
2022-11-11T09:05:56.342Z,79.67
2022-11-11T09:08:46.186Z,79.82
2022-11-11T09:11:36.527Z,79.66
2022-11-11T09:14:25.952Z,79.96
2022-11-11T09:17:15.747Z,80.18
2022-11-11T09:20:05.739Z,80.50
2022-11-11T09:22:55.269Z,80.62
2022-11-11T09:25:44.839Z,80.17
2022-11-11T09:28:34.515Z,79.57
2022-11-11T09:34:33.568Z,79.85
2022-11-11T09:37:23.302Z,79.78
2022-11-11T09:40:17.414Z,79.14
2022-11-11T09:43:12.998Z,78.77
2022-11-11T09:46:09.172Z,78.53
2022-11-11T09:49:12.872Z,78.67
2022-11-11T09:52:04.606Z,78.38
2022-11-11T09:54:56.133Z,77.95
2022-11-11T09:57:49.697Z,77.94
2022-11-11T10:00:41.693Z,78.15
2022-11-11T10:03:32.782Z,77.72
2022-11-11T10:06:24.841Z,77.65
2022-11-11T10:09:19.979Z,78.16
2022-11-11T10:12:13.455Z,78.48
2022-11-11T10:15:05.582Z,77.74
2022-11-11T10:18:04.948Z,77.74
2022-11-11T10:20:56.429Z,78.04
2022-11-11T10:23:47.976Z,77.61
2022-11-11T10:26:39.365Z,77.59
2022-11-11T10:29:32.838Z,77.93
2022-11-11T10:32:23.714Z,78.07
2022-11-11T10:35:17.288Z,77.50
2022-11-11T10:38:19.431Z,77.37
2022-11-11T10:41:13.363Z,76.60
2022-11-11T10:44:03.508Z,76.65
2022-11-11T10:46:57.553Z,76.49
2022-11-11T10:49:52.404Z,76.19
2022-11-11T10:52:44.497Z,76.04
2022-11-11T10:55:36.988Z,76.36
2022-11-11T10:58:29.498Z,75.97
2022-11-11T11:01:22.155Z,75.94
2022-11-11T11:04:16.145Z,76.01
2022-11-11T11:07:07.944Z,75.94
2022-11-11T11:09:59.475Z,75.85
2022-11-11T11:12:52.473Z,75.38
2022-11-11T11:15:49.165Z,75.39
2022-11-11T11:18:43.116Z,75.65
2022-11-11T11:21:49.069Z,75.37
2022-11-11T11:24:43.645Z,74.95
2022-11-11T11:27:33.293Z,74.98
2022-11-11T11:30:23.655Z,74.95
2022-11-11T11:33:13.110Z,74.92
2022-11-11T11:36:16.722Z,74.91
2022-11-11T11:39:05.636Z,74.86
2022-11-11T11:41:54.841Z,74.56
2022-11-11T11:44:44.271Z,74.39
2022-11-11T11:47:43.620Z,74.14
2022-11-11T11:50:38.196Z,74.31
2022-11-11T11:53:39.996Z,74.38
2022-11-11T11:56:34.801Z,74.23
2022-11-11T11:59:28.599Z,73.94
2022-11-11T12:02:33.003Z,73.55
2022-11-11T12:05:26.631Z,73.20
2022-11-11T12:08:26.846Z,72.87
2022-11-11T12:11:19.956Z,73.02
2022-11-11T12:14:23.255Z,72.39
2022-11-11T12:17:17.742Z,71.49
2022-11-11T12:20:12.875Z,72.08
2022-11-11T12:23:07.626Z,71.79
2022-11-11T12:26:02.884Z,71.75
2022-11-11T12:29:04.821Z,71.51
2022-11-11T12:32:04.509Z,71.64
2022-11-11T12:35:04.565Z,71.93
2022-11-11T12:37:58.686Z,72.22
2022-11-11T12:40:53.847Z,71.09
2022-11-11T12:43:51.512Z,70.51
2022-11-11T12:46:51.362Z,70.33
2022-11-11T12:49:50.585Z,70.54
2022-11-11T12:52:45.301Z,70.07
2022-11-11T12:55:39.744Z,70.45
2022-11-11T12:58:42.097Z,71.34
2022-11-11T13:01:39.187Z,71.40
2022-11-11T13:04:37.169Z,71.74
2022-11-11T13:07:34.943Z,71.66
2022-11-11T13:10:31.213Z,70.79
2022-11-11T13:13:29.962Z,70.40
2022-11-11T13:16:23.214Z,70.02
2022-11-11T13:19:20.691Z,75.34
2022-11-11T13:22:15.787Z,71.63
2022-11-11T13:25:09.830Z,69.98
2022-11-11T13:28:03.360Z,70.07
2022-11-11T13:31:00.024Z,70.24
2022-11-11T13:33:51.665Z,70.22
2022-11-11T13:36:44.114Z,72.92
2022-11-11T13:39:35.673Z,75.11
2022-11-11T13:42:29.323Z,71.40
2022-11-11T13:45:26.018Z,71.10
2022-11-11T13:48:22.943Z,70.68
2022-11-11T13:51:15.559Z,70.59
2022-11-11T13:54:07.210Z,71.06
2022-11-11T13:57:03.053Z,71.45
2022-11-11T13:59:58.330Z,72.02
2022-11-11T14:02:48.065Z,72.42
2022-11-11T14:05:37.591Z,72.80
2022-11-11T14:08:43.214Z,72.95
2022-11-11T14:11:33.915Z,73.22
2022-11-11T14:14:40.374Z,73.34
2022-11-11T14:17:31.348Z,73.62
2022-11-11T14:20:38.191Z,73.23
2022-11-11T14:23:33.367Z,73.52
2022-11-11T14:26:32.553Z,73.58
2022-11-11T14:29:22.309Z,73.51
2022-11-11T14:32:24.985Z,73.65
2022-11-11T14:35:26.190Z,73.85
2022-11-11T14:38:29.130Z,73.72
2022-11-11T14:41:35.984Z,74.05
2022-11-11T14:44:38.951Z,74.49
2022-11-11T14:47:34.665Z,74.52
2022-11-11T14:50:41.626Z,74.54
2022-11-11T14:53:37.312Z,74.75
2022-11-11T14:56:29.293Z,74.30
2022-11-11T14:59:20.823Z,74.18
2022-11-11T15:02:19.878Z,74.47
2022-11-11T15:05:15.061Z,74.91
2022-11-11T15:08:12.245Z,74.72
2022-11-11T15:11:15.340Z,75.03
2022-11-11T15:16:26.782Z,79.52
2022-11-11T15:19:31.797Z,75.49
2022-11-11T15:22:35.744Z,74.74
2022-11-11T15:25:43.409Z,74.93
2022-11-11T15:28:47.549Z,74.71
2022-11-11T15:31:48.768Z,74.69
2022-11-11T15:34:44.587Z,74.95
2022-11-11T15:37:36.118Z,75.11
2022-11-11T15:40:31.858Z,74.65
2022-11-11T15:43:25.905Z,74.41
2022-11-11T15:46:26.350Z,74.24
2022-11-11T15:49:38.588Z,74.08
2022-11-11T15:52:35.014Z,73.64
2022-11-11T15:55:28.364Z,73.44
2022-11-11T15:58:28.825Z,73.52
2022-11-11T16:01:27.230Z,73.68
2022-11-11T16:04:53.809Z,73.73
2022-11-11T16:07:39.490Z,73.79
2022-11-11T16:10:34.015Z,73.75
2022-11-11T16:13:28.685Z,73.57
2022-11-11T16:16:26.262Z,73.32
2022-11-11T16:19:27.035Z,73.16
2022-11-11T16:22:22.044Z,73.16
2022-11-11T16:25:20.409Z,72.79
2022-11-11T16:28:13.320Z,72.72
2022-11-11T16:31:22.939Z,72.47
2022-11-11T16:34:36.854Z,72.57
2022-11-11T16:37:28.061Z,73.14
2022-11-11T16:40:38.761Z,73.92
2022-11-11T16:43:32.223Z,73.92
2022-11-11T16:49:28.707Z,74.35
2022-11-11T16:52:24.688Z,74.29
2022-11-11T16:55:25.119Z,74.33
2022-11-11T16:58:17.968Z,74.64
2022-11-11T17:01:10.310Z,74.42
2022-11-11T17:04:02.436Z,74.35
2022-11-11T17:06:56.681Z,74.07
2022-11-11T17:09:48.872Z,74.20
2022-11-11T17:12:43.477Z,74.58
2022-11-11T17:15:41.705Z,74.41
2022-11-11T17:18:33.878Z,74.30
2022-11-11T17:21:25.568Z,74.27
2022-11-11T17:24:17.827Z,74.46
2022-11-11T17:27:10.541Z,74.25
2022-11-11T17:30:02.189Z,74.09
2022-11-11T17:32:54.327Z,73.80
2022-11-11T17:35:53.098Z,73.48
2022-11-11T17:38:46.281Z,73.73
2022-11-11T17:41:38.950Z,74.14
2022-11-11T17:44:31.344Z,74.30
2022-11-11T17:47:25.026Z,74.27
2022-11-11T17:50:17.366Z,74.68
2022-11-11T17:53:23.468Z,74.91
2022-11-11T17:56:12.954Z,74.86
2022-11-11T17:59:06.164Z,74.81
2022-11-11T18:01:57.357Z,74.72
2022-11-11T18:04:48.407Z,74.78
2022-11-11T18:07:44.728Z,74.56
2022-11-11T18:10:36.560Z,74.76
2022-11-11T18:13:27.952Z,74.65
2022-11-11T18:16:22.357Z,74.49
2022-11-11T18:19:13.644Z,74.36
2022-11-11T18:22:05.480Z,74.73
2022-11-11T18:24:57.855Z,74.89
2022-11-11T18:27:49.003Z,74.80
2022-11-11T18:30:41.672Z,74.67
2022-11-11T18:33:34.022Z,74.50
2022-11-11T18:36:25.096Z,74.54
2022-11-11T18:39:16.853Z,74.86
2022-11-11T18:42:07.883Z,74.78
2022-11-11T18:44:59.965Z,74.64
2022-11-11T18:47:52.454Z,74.74
2022-11-11T18:50:45.418Z,74.88
2022-11-11T18:53:39.150Z,75.42
2022-11-11T18:56:33.063Z,76.03
2022-11-11T18:59:25.671Z,76.38
2022-11-11T19:02:16.475Z,76.14
2022-11-11T19:05:10.346Z,76.08
2022-11-11T19:08:01.626Z,75.91
2022-11-11T19:10:54.022Z,75.95
2022-11-11T19:13:45.474Z,75.83
2022-11-11T19:16:37.874Z,75.54
2022-11-11T19:19:29.397Z,75.34
2022-11-11T19:22:21.146Z,75.19
2022-11-11T19:25:12.929Z,75.31
2022-11-11T19:28:05.076Z,75.12
2022-11-11T19:30:56.510Z,74.57
2022-11-11T19:33:54.300Z,74.13
2022-11-11T19:36:47.448Z,74.03
2022-11-11T19:39:39.326Z,73.07
2022-11-11T19:42:32.516Z,72.63
2022-11-11T19:45:25.875Z,72.63
2022-11-11T19:48:18.954Z,72.46
2022-11-11T19:51:13.876Z,72.68
2022-11-11T19:54:07.498Z,73.05
2022-11-11T19:56:59.456Z,73.63
2022-11-11T19:59:52.667Z,73.93
2022-11-11T20:02:45.711Z,74.02
2022-11-11T20:05:41.276Z,73.96
2022-11-11T20:08:35.495Z,74.26
2022-11-11T20:11:29.193Z,74.17
2022-11-11T20:14:22.323Z,73.93
2022-11-11T20:17:19.716Z,73.66
2022-11-11T20:20:15.072Z,73.28
2022-11-11T20:23:11.947Z,72.89
2022-11-11T20:26:09.510Z,72.38
2022-11-11T20:29:02.913Z,72.35
2022-11-11T20:31:56.320Z,72.19
2022-11-11T20:34:49.805Z,72.15
2022-11-11T20:37:44.878Z,72.13
2022-11-11T20:40:37.988Z,72.27
2022-11-11T20:43:31.411Z,72.63
2022-11-11T20:46:23.774Z,73.26
2022-11-11T20:49:15.913Z,73.50
2022-11-11T20:52:07.233Z,73.49
2022-11-11T20:54:59.038Z,73.49
2022-11-11T20:57:50.405Z,74.13
2022-11-11T21:00:43.059Z,74.58
2022-11-11T21:03:34.107Z,74.99
2022-11-11T21:06:26.966Z,75.59
2022-11-11T21:09:17.751Z,75.81
2022-11-11T21:12:08.936Z,76.35
2022-11-11T21:15:00.054Z,76.95
2022-11-11T21:17:50.816Z,76.81
2022-11-11T21:20:42.141Z,77.16
2022-11-11T21:23:32.817Z,77.14
2022-11-11T21:26:25.207Z,76.60
2022-11-11T21:29:16.771Z,76.56
2022-11-11T21:32:10.175Z,77.03
2022-11-11T21:35:02.587Z,77.13
2022-11-11T21:37:54.467Z,77.05
2022-11-11T21:40:45.112Z,77.29
2022-11-11T21:43:37.502Z,77.41
2022-11-11T21:46:29.592Z,77.00
2022-11-11T21:49:21.195Z,77.04
2022-11-11T21:52:12.401Z,76.92
2022-11-11T21:55:03.402Z,76.82
2022-11-11T21:57:54.736Z,76.26
2022-11-11T22:00:45.758Z,75.96
2022-11-11T22:03:38.057Z,75.49
2022-11-11T22:06:29.844Z,75.61
2022-11-11T22:09:21.215Z,75.10
2022-11-11T22:12:12.095Z,74.94
2022-11-11T22:15:03.403Z,74.99
2022-11-11T22:17:57.013Z,75.43
2022-11-11T22:20:48.245Z,75.56
2022-11-11T22:23:40.132Z,74.85
2022-11-11T22:26:35.223Z,74.80
2022-11-11T22:29:26.394Z,74.71
2022-11-11T22:32:17.708Z,74.65
2022-11-11T22:35:09.101Z,74.29
2022-11-11T22:37:59.838Z,74.47
2022-11-11T22:40:50.624Z,74.85
2022-11-11T22:43:59.098Z,74.50
2022-11-11T22:46:50.803Z,74.41
2022-11-11T22:49:41.994Z,74.55
2022-11-11T22:52:33.276Z,74.82
2022-11-11T22:55:23.690Z,74.98
2022-11-11T22:58:14.201Z,74.85
2022-11-11T23:01:11.620Z,75.24
2022-11-11T23:04:05.373Z,75.30
2022-11-11T23:06:56.520Z,75.14
2022-11-11T23:09:46.968Z,75.04
2022-11-11T23:12:37.542Z,74.88
2022-11-11T23:15:28.379Z,74.45
2022-11-11T23:18:19.196Z,74.16
2022-11-11T23:21:12.188Z,73.65
2022-11-11T23:24:02.703Z,73.38
2022-11-11T23:26:53.551Z,73.15
2022-11-11T23:29:48.480Z,72.81
2022-11-11T23:32:42.274Z,72.67
2022-11-11T23:35:33.413Z,72.01
2022-11-11T23:38:24.224Z,72.13
2022-11-11T23:41:16.021Z,72.35
2022-11-11T23:44:08.936Z,72.12
2022-11-11T23:46:59.552Z,71.68
2022-11-11T23:49:50.374Z,71.18
2022-11-11T23:52:41.378Z,71.05
2022-11-11T23:55:32.700Z,70.94
2022-11-11T23:58:24.239Z,71.16
